Time;durP1;ratioP1;P1;durP2;ratioP2;P2;SDS_P1;SDS_P2;PMS_P1;PMS_P2;Temp;Humidity;BMP_temperature;BMP_pressure;BME280_temperature;BME280_humidity;BME280_pressure;Samples;Min_cycle;Max_cycle;Signal;HPM_P1;HPM_P2
2023/09/08 00:00:29;;;;;;;5.28;4.63;;;;;;;23.26;64.02;101660.59;4984475;28;20066;-56
2023/09/08 00:02:55;;;;;;;5.40;4.90;;;;;;;23.25;63.94;101656.19;4988137;28;20072;-55
2023/09/08 00:05:21;;;;;;;5.63;5.13;;;;;;;23.25;63.77;101655.31;4990808;28;20037;-56
2023/09/08 00:07:46;;;;;;;7.05;5.30;;;;;;;23.23;63.97;101653.63;4984408;28;20529;-55
2023/09/08 00:10:12;;;;;;;7.70;4.97;;;;;;;23.23;63.68;101647.34;4987761;28;20151;-55
2023/09/08 00:12:38;;;;;;;5.20;4.70;;;;;;;23.22;63.98;101645.63;4988205;28;20069;-55
2023/09/08 00:15:03;;;;;;;5.47;4.97;;;;;;;23.21;63.44;101657.53;4984622;28;20041;-55
2023/09/08 00:17:29;;;;;;;5.03;4.53;;;;;;;23.21;63.83;101654.81;4991042;28;20038;-55
2023/09/08 00:19:57;;;;;;;6.72;5.05;;;;;;;23.20;63.49;101661.25;4988399;28;20066;-55
2023/09/08 00:22:23;;;;;;;5.35;4.85;;;;;;;23.20;63.58;101656.66;4987657;28;20078;-55
2023/09/08 00:24:48;;;;;;;5.75;4.90;;;;;;;23.19;63.67;101660.41;4990367;28;20093;-55
2023/09/08 00:27:14;;;;;;;5.15;4.70;;;;;;;23.19;63.46;101660.41;4987985;28;20030;-55
2023/09/08 00:29:39;;;;;;;6.68;4.95;;;;;;;23.19;63.46;101660.41;4993812;28;20030;-55
2023/09/08 00:32:05;;;;;;;5.25;4.57;;;;;;;23.19;63.07;101662.28;4988821;28;20050;-55
2023/09/08 00:34:30;;;;;;;5.25;4.75;;;;;;;23.18;63.03;101663.28;4986087;28;20080;-56
2023/09/08 00:36:56;;;;;;;7.00;4.85;;;;;;;23.17;63.15;101658.84;4990869;28;20034;-55
2023/09/08 00:39:21;;;;;;;5.65;4.85;;;;;;;23.18;63.21;101661.41;4989354;28;20041;-56
2023/09/08 00:41:47;;;;;;;6.07;5.47;;;;;;;23.17;63.02;101658.84;4982548;28;20450;-56
2023/09/08 00:44:12;;;;;;;5.45;4.93;;;;;;;23.17;62.90;101664.28;4983561;28;20034;-55
2023/09/08 00:46:38;;;;;;;4.70;4.22;;;;;;;23.17;63.09;101664.28;4988727;28;20049;-55
2023/09/08 00:49:05;;;;;;;5.82;4.75;;;;;;;23.16;63.07;101660.72;4985482;28;20042;-55
2023/09/08 00:51:30;;;;;;;5.68;5.05;;;;;;;23.15;62.86;101656.31;4986308;28;20044;-55
2023/09/08 00:53:56;;;;;;;5.88;5.03;;;;;;;23.14;63.06;101654.59;4986388;28;20392;-55
2023/09/08 00:56:23;;;;;;;5.07;4.68;;;;;;;23.14;62.86;101651.03;4989827;28;20539;-56
2023/09/08 00:58:48;;;;;;;5.22;4.28;;;;;;;23.13;63.07;101655.63;4988361;28;20034;-55
2023/09/08 01:01:14;;;;;;;5.78;5.28;;;;;;;23.13;62.74;101654.75;4991607;28;20420;-55
2023/09/08 01:03:39;;;;;;;5.65;4.80;;;;;;;23.13;62.64;101660.19;4994064;28;20034;-56
2023/09/08 01:06:06;;;;;;;7.28;5.10;;;;;;;23.11;63.02;101654.91;4989205;28;20116;-55
2023/09/08 01:08:31;;;;;;;4.97;4.55;;;;;;;23.12;63.19;101655.78;4989429;28;20042;-55
2023/09/08 01:10:57;;;;;;;5.10;4.70;;;;;;;23.11;62.90;101651.34;4988657;28;20045;-55
2023/09/08 01:13:22;;;;;;;5.50;5.00;;;;;;;23.11;63.14;101654.06;4989123;28;20114;-55
2023/09/08 01:15:49;;;;;;;5.35;4.80;;;;;;;23.10;62.78;101658.66;4994822;28;20133;-55
2023/09/08 01:18:14;;;;;;;5.07;4.57;;;;;;;23.10;63.04;101650.50;4985442;28;20058;-55
2023/09/08 01:20:39;;;;;;;4.80;4.30;;;;;;;23.11;62.70;101648.63;4992081;28;20078;-55
2023/09/08 01:23:32;;;;;;;5.47;4.90;;;;;;;23.10;62.78;101652.38;4988387;28;20089;-56
2023/09/08 01:26:20;;;;;;;5.63;5.03;;;;;;;23.10;63.10;101650.50;4991793;28;20261;-56
2023/09/08 01:28:49;;;;;;;5.50;5.00;;;;;;;23.08;62.55;101657.97;4989785;28;20513;-55
2023/09/08 01:31:15;;;;;;;4.75;4.32;;;;;;;23.09;62.77;101659.66;4985694;28;20566;-55
2023/09/08 01:33:41;;;;;;;4.95;4.53;;;;;;;23.07;62.28;101664.41;4992081;28;20072;-55
2023/09/08 01:36:07;;;;;;;6.80;4.93;;;;;;;23.07;62.85;101658.13;4992062;28;20130;-55
2023/09/08 01:38:33;;;;;;;4.82;4.38;;;;;;;23.07;62.26;101650.81;4990068;28;20169;-56
2023/09/08 01:40:58;;;;;;;5.50;4.72;;;;;;;23.08;62.74;101654.41;4991625;28;20502;-55
2023/09/08 01:43:24;;;;;;;8.32;5.15;;;;;;;23.07;62.25;101649.97;4991489;28;20067;-55
2023/09/08 01:45:49;;;;;;;7.65;5.30;;;;;;;23.06;62.72;101656.44;4987620;28;20036;-55
2023/09/08 01:48:14;;;;;;;6.28;5.15;;;;;;;23.07;62.88;101660.84;4989441;28;20026;-55
2023/09/08 01:50:40;;;;;;;5.10;4.60;;;;;;;23.05;62.31;101655.56;4990253;28;20133;-56
2023/09/08 01:53:05;;;;;;;5.32;4.80;;;;;;;23.04;62.56;101653.88;4984866;28;20035;-56
2023/09/08 01:55:30;;;;;;;6.72;5.10;;;;;;;23.03;62.20;101650.28;4988697;28;20042;-55
2023/09/08 01:57:56;;;;;;;5.45;4.95;;;;;;;23.05;61.96;101647.41;4993553;28;20041;-55
2023/09/08 02:00:21;;;;;;;5.22;4.72;;;;;;;23.02;62.54;101645.84;4988255;28;20484;-55
2023/09/08 02:02:46;;;;;;;5.07;4.57;;;;;;;23.03;62.40;101650.28;4990623;28;20365;-55
2023/09/08 02:05:12;;;;;;;6.03;4.82;;;;;;;23.03;62.29;101646.72;4989923;28;20034;-55
2023/09/08 02:07:37;;;;;;;5.30;4.75;;;;;;;23.01;62.29;101644.13;4987543;28;20021;-55
2023/09/08 02:10:03;;;;;;;5.05;4.63;;;;;;;23.01;62.40;101649.56;4992948;28;20117;-56
2023/09/08 02:12:28;;;;;;;5.75;4.93;;;;;;;23.02;62.00;101654.00;4989689;28;20041;-55
2023/09/08 02:14:53;;;;;;;7.55;4.80;;;;;;;23.01;62.30;101649.56;4990254;28;20476;-55
2023/09/08 02:17:19;;;;;;;5.80;5.25;;;;;;;23.01;62.22;101644.13;4993631;28;20388;-55
2023/09/08 02:19:44;;;;;;;5.63;5.13;;;;;;;23.01;61.91;101644.13;4986573;28;20058;-55
2023/09/08 02:22:10;;;;;;;5.13;4.40;;;;;;;23.01;62.18;101643.28;4991699;28;20038;-55
2023/09/08 02:24:36;;;;;;;4.70;4.30;;;;;;;22.99;61.84;101646.16;4992909;28;20045;-55
2023/09/08 02:27:01;;;;;;;5.43;4.80;;;;;;;22.98;62.19;101639.03;4985152;28;20058;-55
2023/09/08 02:29:26;;;;;;;5.50;4.85;;;;;;;23.00;61.65;101641.59;4988474;28;20100;-55
2023/09/08 02:31:52;;;;;;;6.75;4.95;;;;;;;22.99;61.74;101639.88;4990054;28;20058;-55
2023/09/08 02:34:17;;;;;;;5.57;4.93;;;;;;;22.98;62.17;101635.44;4987011;28;20034;-55
2023/09/08 02:36:43;;;;;;;4.93;4.18;;;;;;;22.97;61.50;101629.16;4987870;28;20038;-55
2023/09/08 02:39:08;;;;;;;5.38;4.80;;;;;;;22.98;61.63;101621.84;4988428;28;20034;-55
2023/09/08 02:41:34;;;;;;;5.28;4.78;;;;;;;22.98;61.59;101627.28;4989322;28;20038;-55
2023/09/08 02:43:59;;;;;;;4.85;4.28;;;;;;;22.96;62.17;101623.88;4988365;28;20065;-55
2023/09/08 02:46:25;;;;;;;5.20;4.68;;;;;;;22.97;62.20;101637.31;4990453;28;20058;-55
2023/09/08 02:48:51;;;;;;;4.95;4.55;;;;;;;22.97;61.79;101640.03;4982589;28;20472;-55
2023/09/08 02:51:16;;;;;;;5.22;4.60;;;;;;;22.96;61.78;101641.06;4987712;28;20400;-55
2023/09/08 02:53:42;;;;;;;5.22;4.72;;;;;;;22.96;61.89;101638.34;4989362;28;20506;-56
2023/09/08 02:56:09;;;;;;;5.90;5.38;;;;;;;22.96;61.58;101638.34;4990537;28;20035;-55
2023/09/08 02:58:34;;;;;;;5.10;4.43;;;;;;;22.95;61.73;101644.78;4988429;28;20037;-55
2023/09/08 03:01:29;;;;;;;5.07;4.68;;;;;;;22.99;61.92;101642.59;4991480;28;20029;-55
2023/09/08 03:03:54;;;;;;;5.97;4.45;;;;;;;22.95;61.20;101643.94;4977907;28;20059;-55
2023/09/08 03:06:20;;;;;;;6.22;5.00;;;;;;;22.94;61.55;101642.22;4990400;28;20038;-56
2023/09/08 03:08:46;;;;;;;5.75;4.55;;;;;;;22.92;61.46;101639.66;4987705;28;20057;-55
2023/09/08 03:11:12;;;;;;;5.10;4.57;;;;;;;22.93;61.55;101641.38;4985128;28;20042;-55
2023/09/08 03:13:37;;;;;;;5.35;4.72;;;;;;;22.91;61.74;101626.25;4990191;28;20046;-55
2023/09/08 03:16:07;;;;;;;5.72;4.88;;;;;;;22.91;61.48;101632.53;4988465;28;20034;-55
2023/09/08 03:18:33;;;;;;;5.13;4.63;;;;;;;22.90;61.55;101636.25;4987012;28;20049;-55
2023/09/08 03:21:01;;;;;;;5.85;5.10;;;;;;;22.90;61.27;101633.53;4989792;28;20038;-56
2023/09/08 03:23:27;;;;;;;5.30;4.80;;;;;;;22.90;61.24;101638.97;4991306;28;20041;-55
2023/09/08 03:25:52;;;;;;;5.60;4.65;;;;;;;22.90;61.35;101641.66;4984377;28;20035;-55
2023/09/08 03:28:18;;;;;;;4.78;4.38;;;;;;;22.90;61.33;101636.25;4989255;28;20116;-55
2023/09/08 03:30:43;;;;;;;5.15;4.63;;;;;;;22.90;61.19;101630.81;4989287;28;20511;-55
2023/09/08 03:33:08;;;;;;;4.85;4.45;;;;;;;22.89;60.97;101628.28;4984840;28;20043;-55
2023/09/08 03:35:34;;;;;;;4.90;4.50;;;;;;;22.88;61.40;101632.84;4991519;28;20034;-55
2023/09/08 03:37:59;;;;;;;5.10;4.63;;;;;;;22.87;61.28;101630.31;4990975;28;20432;-55
2023/09/08 03:40:24;;;;;;;5.20;4.70;;;;;;;22.88;60.70;101632.00;4982175;28;20125;-55
2023/09/08 03:42:50;;;;;;;4.80;4.40;;;;;;;22.87;61.32;101625.72;4987171;28;20030;-55
2023/09/08 03:45:15;;;;;;;4.75;4.35;;;;;;;22.87;61.17;101623.00;4987006;28;20400;-55
2023/09/08 03:47:40;;;;;;;4.60;4.18;;;;;;;22.85;61.04;101625.03;4988481;28;20029;-55
2023/09/08 03:50:06;;;;;;;5.32;4.47;;;;;;;22.85;60.89;101616.88;4990887;28;20034;-55
2023/09/08 03:52:32;;;;;;;4.65;4.15;;;;;;;22.84;60.69;101620.59;4986157;28;20066;-55
2023/09/08 03:54:58;;;;;;;4.78;4.38;;;;;;;22.84;60.78;101621.44;4981865;28;20026;-55
2023/09/08 03:57:23;;;;;;;5.47;4.88;;;;;;;22.83;60.96;101613.47;4993032;28;20425;-55
2023/09/08 03:59:49;;;;;;;4.95;4.43;;;;;;;22.84;60.99;101620.59;4986519;28;20042;-55
2023/09/08 04:02:14;;;;;;;5.25;4.75;;;;;;;22.83;60.98;101622.47;4984565;28;20110;-55
2023/09/08 04:04:39;;;;;;;5.72;4.90;;;;;;;22.82;61.16;101611.75;4989708;28;20359;-55
2023/09/08 04:07:05;;;;;;;5.40;4.30;;;;;;;22.83;60.85;101616.19;4985088;28;20142;-55
2023/09/08 04:09:31;;;;;;;5.30;4.30;;;;;;;22.82;61.25;101619.91;4986804;28;20042;-55
2023/09/08 04:11:57;;;;;;;5.68;4.72;;;;;;;22.81;60.64;101612.78;4986861;28;20035;-56
2023/09/08 04:14:26;;;;;;;6.30;4.63;;;;;;;22.80;61.01;101614.63;4986709;28;20479;-56
2023/09/08 04:16:52;;;;;;;5.07;4.57;;;;;;;22.81;61.05;101612.78;4984439;28;20125;-55
2023/09/08 04:19:17;;;;;;;5.28;4.40;;;;;;;22.80;60.60;101617.34;4991076;28;20125;-55
2023/09/08 04:21:43;;;;;;;5.82;4.75;;;;;;;22.81;60.78;101612.78;4989971;28;20034;-55
2023/09/08 04:24:10;;;;;;;4.93;4.53;;;;;;;22.79;60.77;101607.50;4983387;28;20034;-55
2023/09/08 04:26:36;;;;;;;5.25;4.75;;;;;;;22.80;60.39;101609.19;4986609;28;20385;-55
2023/09/08 04:29:01;;;;;;;5.53;4.75;;;;;;;22.79;60.65;101601.22;4988749;28;20034;-55
2023/09/08 04:31:26;;;;;;;6.55;4.50;;;;;;;22.78;60.21;101602.22;4988673;28;20443;-55
2023/09/08 04:33:53;;;;;;;4.88;4.30;;;;;;;22.78;60.52;101602.22;4990229;28;20042;-56
2023/09/08 04:36:18;;;;;;;4.60;4.18;;;;;;;22.78;60.71;101607.66;4989816;28;20038;-55
2023/09/08 04:38:44;;;;;;;5.18;4.68;;;;;;;22.77;60.89;101609.53;4989468;28;20041;-55
2023/09/08 04:41:10;;;;;;;7.35;4.45;;;;;;;22.77;60.56;101608.66;4992086;28;20046;-55
2023/09/08 04:43:35;;;;;;;4.97;4.47;;;;;;;22.78;60.22;101604.94;4992439;28;20042;-56
2023/09/08 04:46:02;;;;;;;4.75;4.35;;;;;;;22.77;60.53;101603.22;4989955;28;20085;-56
2023/09/08 04:48:28;;;;;;;5.15;4.65;;;;;;;22.77;60.67;101608.66;4991631;28;20042;-55
2023/09/08 04:50:53;;;;;;;4.82;4.28;;;;;;;22.75;60.66;101608.84;4989159;28;20046;-55
2023/09/08 04:53:18;;;;;;;5.22;4.57;;;;;;;22.76;60.83;101609.69;4991758;28;20038;-55
2023/09/08 04:55:44;;;;;;;5.22;4.40;;;;;;;22.76;60.29;101606.97;4994229;28;20034;-55
2023/09/08 04:58:09;;;;;;;5.18;4.68;;;;;;;22.75;59.95;101608.84;4987900;28;20121;-55
2023/09/08 05:00:37;;;;;;;4.53;4.13;;;;;;;22.74;60.55;101615.28;4990655;28;20034;-55
2023/09/08 05:03:02;;;;;;;6.30;5.22;;;;;;;22.74;60.00;101614.44;4991001;28;20050;-55
2023/09/08 05:05:28;;;;;;;5.05;4.55;;;;;;;22.74;60.54;101619.84;4990414;28;20037;-55
2023/09/08 05:07:56;;;;;;;5.22;4.72;;;;;;;22.74;60.36;101615.28;4996070;28;20121;-55
2023/09/08 05:10:22;;;;;;;4.93;4.38;;;;;;;22.74;59.79;101609.84;4992219;28;20039;-55
2023/09/08 05:12:47;;;;;;;8.30;6.40;;;;;;;22.73;60.27;101618.13;4986072;28;20042;-55
2023/09/08 05:15:15;;;;;;;13.07;8.13;;;;;;;22.65;59.46;101617.06;4992061;28;20030;-55
2023/09/08 05:17:41;;;;;;;17.25;9.57;;;;;;;22.56;58.90;101618.03;4993027;28;20078;-55
2023/09/08 05:20:07;;;;;;;12.45;8.70;;;;;;;22.48;58.38;101611.69;4994693;28;20559;-55
2023/09/08 05:22:32;;;;;;;16.52;9.63;;;;;;;22.41;58.83;101620.47;4993210;28;20077;-55
2023/09/08 05:24:58;;;;;;;11.88;9.13;;;;;;;22.33;58.96;101625.81;4991890;28;20077;-55
2023/09/08 05:27:23;;;;;;;13.05;9.40;;;;;;;22.29;59.19;101620.84;4992536;28;20029;-54
2023/09/08 05:29:49;;;;;;;13.50;9.68;;;;;;;22.24;58.82;101621.31;4991891;28;20037;-55
2023/09/08 05:32:14;;;;;;;14.00;9.70;;;;;;;22.19;59.33;101619.03;4992520;28;20192;-55
2023/09/08 05:34:39;;;;;;;15.48;9.43;;;;;;;22.13;59.25;101626.97;4992804;28;20041;-54
2023/09/08 05:37:05;;;;;;;12.55;10.25;;;;;;;22.04;59.62;101624.16;4990606;28;20771;-54
2023/09/08 05:39:30;;;;;;;14.82;10.65;;;;;;;21.97;59.94;101627.63;4989208;28;20540;-54
2023/09/08 05:41:56;;;;;;;12.05;10.48;;;;;;;21.94;59.65;101627.94;4991886;28;20061;-55
2023/09/08 05:44:21;;;;;;;15.63;10.32;;;;;;;21.91;60.16;101622.81;4991995;28;20030;-54
2023/09/08 05:46:47;;;;;;;16.15;9.88;;;;;;;21.90;59.84;101634.69;4992089;28;20126;-54
2023/09/08 05:49:13;;;;;;;13.52;10.05;;;;;;;21.86;60.03;101632.28;4991663;28;20054;-54
2023/09/08 05:51:39;;;;;;;13.40;10.98;;;;;;;21.89;60.23;101632.97;4992002;28;20437;-54
2023/09/08 05:54:05;;;;;;;11.88;9.73;;;;;;;21.89;60.47;101635.69;4992829;28;20030;-54
2023/09/08 05:56:31;;;;;;;11.38;9.75;;;;;;;21.89;60.42;101647.38;4986715;28;20061;-54
2023/09/08 05:58:57;;;;;;;12.57;9.40;;;;;;;21.91;60.16;101639.09;4986578;28;20057;-54
2023/09/08 06:01:24;;;;;;;13.70;10.20;;;;;;;21.92;60.35;101640.81;4988469;28;20039;-54
2023/09/08 06:03:49;;;;;;;13.75;10.77;;;;;;;21.95;62.81;101640.50;4989207;28;20037;-54
2023/09/08 06:06:15;;;;;;;17.42;10.73;;;;;;;22.01;61.00;101634.47;4965726;28;20062;-61
2023/09/08 06:08:40;;;;;;;15.07;10.35;;;;;;;22.10;61.47;101633.53;4993282;28;20053;-66
2023/09/08 06:11:06;;;;;;;11.63;10.43;;;;;;;22.16;61.38;101638.34;4990674;28;20365;-69
2023/09/08 06:13:31;;;;;;;13.60;9.98;;;;;;;22.24;60.80;101640.28;4991097;28;20034;-55
2023/09/08 06:15:56;;;;;;;11.60;10.40;;;;;;;22.28;60.33;101640.88;4995305;28;20030;-56
2023/09/08 06:18:22;;;;;;;15.00;12.32;;;;;;;22.21;60.53;101641.44;4994887;28;20114;-56
2023/09/08 06:20:47;;;;;;;15.50;11.02;;;;;;;22.22;60.79;101640.44;4994782;28;20448;-55
2023/09/08 06:23:14;;;;;;;15.52;12.32;;;;;;;22.16;60.59;101637.47;4994866;28;20499;-56
2023/09/08 06:25:39;;;;;;;14.10;12.70;;;;;;;22.14;60.57;101644.91;4990010;28;20042;-55
2023/09/08 06:28:05;;;;;;;15.43;12.10;;;;;;;22.11;60.67;101640.66;4989125;28;20041;-55
2023/09/08 06:30:30;;;;;;;14.35;12.30;;;;;;;22.10;60.37;101644.38;4988899;28;20093;-56
2023/09/08 06:32:56;;;;;;;16.77;12.18;;;;;;;22.11;61.13;101640.66;4987818;28;20468;-56
2023/09/08 06:35:21;;;;;;;16.77;11.27;;;;;;;22.14;61.28;101643.09;4988610;28;20063;-56
2023/09/08 06:37:46;;;;;;;13.88;11.60;;;;;;;22.16;61.27;101649.19;4989181;28;20033;-56
2023/09/08 06:40:12;;;;;;;19.40;12.52;;;;;;;22.13;61.23;101652.22;4989193;28;20053;-56
2023/09/08 06:42:37;;;;;;;16.67;13.40;;;;;;;22.14;61.67;101642.22;4991388;28;20034;-55
2023/09/08 06:45:03;;;;;;;15.75;13.18;;;;;;;22.12;61.56;101647.78;4987765;28;20033;-56
2023/09/08 06:47:28;;;;;;;16.05;12.38;;;;;;;22.09;61.66;101649.97;4986844;28;20046;-56
2023/09/08 06:49:53;;;;;;;14.43;12.38;;;;;;;22.10;61.61;101659.81;4987110;28;20076;-56
2023/09/08 06:52:19;;;;;;;13.93;12.40;;;;;;;22.12;61.81;101647.78;4986755;28;20066;-56
2023/09/08 06:54:47;;;;;;;15.20;12.05;;;;;;;22.11;61.62;101656.09;4986788;28;20081;-56
2023/09/08 06:57:13;;;;;;;18.70;12.45;;;;;;;22.13;61.43;101654.94;4985318;28;20035;-56
2023/09/08 06:59:38;;;;;;;18.50;12.00;;;;;;;22.11;61.57;101664.22;4991155;28;20838;-56
2023/09/08 07:02:04;;;;;;;17.30;12.07;;;;;;;22.11;61.81;101665.09;4986024;28;20065;-56
2023/09/08 07:04:30;;;;;;;18.45;12.05;;;;;;;22.13;61.85;101670.34;4985974;28;20089;-56
2023/09/08 07:06:55;;;;;;;12.35;10.88;;;;;;;22.14;61.98;101662.06;4986029;28;20035;-56
2023/09/08 07:09:20;;;;;;;17.75;12.13;;;;;;;22.15;62.21;101662.91;4992525;28;20366;-56
2023/09/08 07:11:46;;;;;;;16.40;11.75;;;;;;;22.18;62.72;101654.44;4986662;28;20037;-55
2023/09/08 07:14:12;;;;;;;13.68;11.18;;;;;;;22.18;62.28;101663.47;4986401;28;20066;-56
2023/09/08 07:16:37;;;;;;;15.40;12.70;;;;;;;22.20;62.01;101666.00;4986362;28;20117;-59
2023/09/08 07:19:03;;;;;;;13.13;11.73;;;;;;;22.21;62.65;101656.88;4986862;28;20023;-58
2023/09/08 07:21:28;;;;;;;17.77;12.48;;;;;;;22.22;62.60;101659.44;4987786;28;20142;-57
2023/09/08 07:23:53;;;;;;;17.65;11.98;;;;;;;22.25;62.33;101658.28;4987387;28;20030;-58
2023/09/08 07:26:20;;;;;;;15.75;12.10;;;;;;;22.28;62.13;101662.56;4986899;28;20500;-58
2023/09/08 07:28:45;;;;;;;22.80;13.07;;;;;;;22.29;62.58;101658.84;4986413;28;20033;-58
2023/09/08 07:31:11;;;;;;;15.05;11.27;;;;;;;22.30;62.36;101666.81;4986394;28;20058;-58
2023/09/08 07:33:37;;;;;;;15.70;12.13;;;;;;;22.30;62.18;101661.41;4986396;28;20038;-59
2023/09/08 07:36:04;;;;;;;16.63;12.60;;;;;;;22.32;62.25;101663.97;4986362;28;20093;-58
2023/09/08 07:38:29;;;;;;;18.42;12.95;;;;;;;22.35;61.92;101663.63;4985708;28;20035;-58
2023/09/08 07:40:55;;;;;;;13.55;10.32;;;;;;;22.37;61.92;101659.78;4985543;28;20043;-59
2023/09/08 07:43:20;;;;;;;17.65;11.75;;;;;;;22.40;62.28;101656.72;4985530;28;20081;-58
2023/09/08 07:45:45;;;;;;;16.75;13.48;;;;;;;22.44;62.30;101658.13;4986507;28;20480;-58
2023/09/08 07:48:11;;;;;;;14.95;13.38;;;;;;;22.48;62.79;101657.81;4986836;28;20092;-57
2023/09/08 07:50:37;;;;;;;20.77;15.02;;;;;;;22.52;63.20;101659.22;4986960;28;20021;-58
2023/09/08 07:53:02;;;;;;;20.08;15.10;;;;;;;22.55;63.66;101662.47;4985797;28;20038;-58
2023/09/08 07:55:28;;;;;;;20.73;13.82;;;;;;;22.60;63.80;101662.84;4987691;28;20034;-58
2023/09/08 07:57:54;;;;;;;20.17;14.50;;;;;;;22.64;63.75;101663.41;4988044;28;20038;-58
2023/09/08 08:00:20;;;;;;;18.13;14.40;;;;;;;22.66;63.91;101666.81;4987317;28;20096;-58
2023/09/08 08:02:50;;;;;;;17.08;13.48;;;;;;;22.69;63.71;101666.47;4986685;28;20042;-58
2023/09/08 08:05:15;;;;;;;16.92;13.68;;;;;;;22.71;63.26;101652.75;4986717;28;20582;-58
2023/09/08 08:07:42;;;;;;;14.65;12.88;;;;;;;22.72;63.10;101655.31;4986300;28;20035;-58
2023/09/08 08:10:08;;;;;;;18.30;12.38;;;;;;;22.75;63.15;101654.13;4986253;28;20575;-58
2023/09/08 08:12:34;;;;;;;19.13;12.77;;;;;;;22.77;63.15;101649.38;4986311;28;20034;-59
2023/09/08 08:14:59;;;;;;;13.38;11.88;;;;;;;22.78;63.12;101649.25;4984553;28;20085;-58
2023/09/08 08:17:26;;;;;;;14.32;11.45;;;;;;;22.81;63.12;101653.53;4986103;28;20061;-58
2023/09/08 08:19:52;;;;;;;14.32;10.68;;;;;;;22.83;63.16;101651.50;4989750;28;20030;-59
2023/09/08 08:22:17;;;;;;;12.48;11.18;;;;;;;22.86;62.62;101653.03;4992482;28;20031;-59
2023/09/08 08:24:43;;;;;;;12.23;10.23;;;;;;;22.87;62.68;101661.03;4988883;28;20081;-59
2023/09/08 08:27:08;;;;;;;14.98;10.40;;;;;;;22.88;63.15;101662.72;4987858;28;20026;-59
2023/09/08 08:29:33;;;;;;;11.43;9.75;;;;;;;22.90;62.92;101657.13;4986002;28;20030;-59
2023/09/08 08:31:59;;;;;;;16.20;10.50;;;;;;;22.90;63.19;101659.84;4985450;28;20063;-59
2023/09/08 08:34:24;;;;;;;12.65;9.52;;;;;;;22.91;63.01;101659.69;4986645;28;20031;-59
2023/09/08 08:36:50;;;;;;;12.48;9.43;;;;;;;22.92;63.16;101661.38;4986705;28;20116;-59
2023/09/08 08:39:16;;;;;;;10.15;8.65;;;;;;;22.93;62.89;101665.81;4986802;28;20470;-59
2023/09/08 08:41:41;;;;;;;10.98;8.50;;;;;;;22.94;63.03;101670.25;4986987;28;20033;-59
2023/09/08 08:44:10;;;;;;;11.07;8.32;;;;;;;22.94;62.46;101663.94;4988083;28;20045;-59
2023/09/08 08:46:37;;;;;;;11.15;8.32;;;;;;;22.94;63.47;101666.66;4987407;28;20023;-59
2023/09/08 08:49:06;;;;;;;9.18;8.13;;;;;;;22.95;63.73;101663.78;4987943;28;20038;-59
2023/09/08 08:51:32;;;;;;;13.25;9.35;;;;;;;22.97;63.86;101659.03;4991584;28;20056;-59
2023/09/08 08:53:58;;;;;;;12.10;9.05;;;;;;;22.99;63.46;101662.44;4986358;28;20077;-58
2023/09/08 08:56:23;;;;;;;10.45;9.43;;;;;;;23.02;63.67;101662.13;4988268;28;20062;-59
2023/09/08 08:58:50;;;;;;;14.52;8.88;;;;;;;23.05;63.99;101665.56;4990336;28;20030;-59
2023/09/08 09:01:19;;;;;;;12.60;9.35;;;;;;;23.06;63.78;101656.44;4992298;28;20038;-59
2023/09/08 09:03:49;;;;;;;12.27;9.55;;;;;;;23.10;64.19;101657.81;4989783;28;20038;-58
2023/09/08 09:06:15;;;;;;;18.75;10.10;;;;;;;23.13;64.80;101658.34;4988703;28;20085;-58
2023/09/08 09:08:43;;;;;;;15.30;10.10;;;;;;;23.17;64.70;101667.88;4988871;28;20464;-59
2023/09/08 09:11:09;;;;;;;23.77;10.60;;;;;;;23.19;65.40;101665.00;4989187;28;20034;-58
2023/09/08 09:13:34;;;;;;;28.65;9.27;;;;;;;23.19;65.33;101660.41;4990350;28;20040;-58
2023/09/08 09:16:03;;;;;;;29.88;10.40;;;;;;;23.22;65.92;101661.94;4991522;28;20049;-59
2023/09/08 09:18:30;;;;;;;31.52;9.75;;;;;;;23.22;65.94;101662.78;4989150;28;20034;-58
2023/09/08 09:20:58;;;;;;;20.90;9.38;;;;;;;23.22;65.78;101660.06;4989301;28;20030;-58
2023/09/08 09:23:32;;;;;;;31.38;10.35;;;;;;;23.21;65.15;101658.38;4985173;28;20456;-58
2023/09/08 09:25:59;;;;;;;23.45;9.43;;;;;;;23.21;65.66;101661.09;4989968;28;20042;-58
2023/09/08 09:28:25;;;;;;;13.32;8.95;;;;;;;23.21;66.02;101657.53;4989255;28;20045;-58
2023/09/08 09:30:52;;;;;;;19.77;8.85;;;;;;;23.21;65.78;101654.81;4988395;28;20041;-58
2023/09/08 09:33:18;;;;;;;14.30;8.25;;;;;;;23.21;65.18;101660.25;4988564;28;20042;-58
2023/09/08 09:35:45;;;;;;;15.07;8.70;;;;;;;23.22;65.22;101656.50;4988440;28;20133;-58
2023/09/08 09:38:11;;;;;;;16.60;9.02;;;;;;;23.21;65.29;101660.25;4987684;28;20042;-58
2023/09/08 09:40:38;;;;;;;16.38;8.25;;;;;;;23.21;65.20;101655.66;4989901;28;20030;-58
2023/09/08 09:43:05;;;;;;;17.45;9.65;;;;;;;23.22;65.21;101651.06;4992789;28;20038;-58
2023/09/08 09:45:32;;;;;;;12.65;8.63;;;;;;;23.22;65.03;101660.06;4987603;28;20045;-58
2023/09/08 09:47:58;;;;;;;16.08;9.05;;;;;;;23.22;65.49;101656.50;4988276;28;20030;-59
2023/09/08 09:50:30;;;;;;;15.23;8.02;;;;;;;23.24;65.38;101659.91;4989030;28;20037;-58
2023/09/08 09:53:01;;;;;;;12.13;8.10;;;;;;;23.24;64.93;101657.19;4989377;28;20034;-58
2023/09/08 09:55:28;;;;;;;10.73;8.05;;;;;;;23.23;65.09;101658.22;4988515;28;20031;-58
2023/09/08 09:58:02;;;;;;;12.02;8.48;;;;;;;23.25;65.40;101658.03;4991290;28;20109;-58
2023/09/08 10:00:28;;;;;;;11.48;8.50;;;;;;;23.25;65.20;101661.63;4993118;28;20026;-58
2023/09/08 10:02:55;;;;;;;12.55;8.25;;;;;;;23.25;65.15;101653.47;4983643;28;20049;-58
2023/09/08 10:05:20;;;;;;;13.15;8.52;;;;;;;23.26;65.26;101657.88;4989371;28;20034;-58
2023/09/08 10:07:50;;;;;;;14.55;9.15;;;;;;;23.27;65.29;101654.16;4988781;28;20477;-58
2023/09/08 10:10:16;;;;;;;9.25;8.00;;;;;;;23.27;65.27;101650.59;4987362;28;20052;-58
2023/09/08 10:12:45;;;;;;;10.65;9.05;;;;;;;23.28;65.13;101649.56;4988045;28;20092;-58
2023/09/08 10:15:13;;;;;;;9.50;8.15;;;;;;;23.28;65.50;101647.69;4987797;28;20042;-58
2023/09/08 10:17:40;;;;;;;12.07;8.45;;;;;;;23.30;65.60;101653.81;4987101;28;20036;-58
2023/09/08 10:20:10;;;;;;;9.52;7.57;;;;;;;23.31;65.50;101649.25;4988976;28;20045;-58
2023/09/08 10:22:37;;;;;;;11.35;8.30;;;;;;;23.31;65.28;101650.09;4992195;28;20026;-58
2023/09/08 10:25:06;;;;;;;8.48;7.57;;;;;;;23.32;65.39;101651.81;4991733;28;20037;-58
2023/09/08 10:27:32;;;;;;;9.73;8.10;;;;;;;23.34;65.29;101648.91;4992318;28;20030;-58
2023/09/08 10:30:01;;;;;;;10.85;7.82;;;;;;;23.33;65.74;101647.22;4990756;28;20491;-58
2023/09/08 10:32:28;;;;;;;11.38;7.65;;;;;;;23.34;65.71;101649.78;4987096;28;20389;-58
2023/09/08 10:34:54;;;;;;;8.63;7.70;;;;;;;23.34;65.07;101655.22;4987412;28;20040;-58
2023/09/08 10:37:27;;;;;;;10.27;7.10;;;;;;;23.36;65.46;101658.63;4987175;28;20473;-58
2023/09/08 10:39:53;;;;;;;7.10;6.40;;;;;;;23.35;64.99;101656.91;4987553;28;20043;-58
2023/09/08 10:42:21;;;;;;;8.35;7.43;;;;;;;23.36;64.97;101652.31;4987117;28;20034;-58
2023/09/08 10:44:49;;;;;;;9.73;6.88;;;;;;;23.35;64.89;101651.47;4988310;28;20035;-58
2023/09/08 10:47:19;;;;;;;11.30;7.07;;;;;;;23.36;64.97;101645.03;4988402;28;20034;-58
2023/09/08 10:49:45;;;;;;;7.32;6.63;;;;;;;23.37;65.48;101646.72;4986782;28;20084;-58
2023/09/08 10:52:12;;;;;;;9.07;7.22;;;;;;;23.37;65.40;101648.59;4987485;28;20113;-58
2023/09/08 10:54:42;;;;;;;7.97;6.60;;;;;;;23.39;65.05;101635.69;4987107;28;20052;-58
2023/09/08 10:57:13;;;;;;;7.38;6.53;;;;;;;23.39;65.01;101641.13;4986619;28;20031;-58
2023/09/08 10:59:39;;;;;;;8.27;6.88;;;;;;;23.39;65.13;101641.97;4989145;28;20468;-58
2023/09/08 11:02:04;;;;;;;8.35;6.38;;;;;;;23.39;65.77;101633.81;4986026;28;20046;-58
2023/09/08 11:04:30;;;;;;;7.85;6.22;;;;;;;23.41;65.63;101644.53;4986307;28;20039;-58
2023/09/08 11:06:58;;;;;;;7.88;6.57;;;;;;;23.41;65.22;101639.09;4990404;28;20033;-58
2023/09/08 11:09:24;;;;;;;6.88;6.07;;;;;;;23.41;65.49;101639.94;4988172;28;20047;-58
2023/09/08 11:11:50;;;;;;;8.85;7.20;;;;;;;23.43;65.71;101640.63;4987669;28;20047;-58
2023/09/08 11:14:16;;;;;;;7.85;6.63;;;;;;;23.42;65.30;101636.22;4987765;28;20037;-58